Alexandria, SD

1:01 AM CST on December 22, 2014 (GMT -0600)
Hai Bar Ranch | Change Station
CLOSE
Current Station
Personal Weather Station
Location: Mitchell, SD
Elevation: 1296 ft
Nearby Weather Stations

Elev 1296 ft 43.72 °N, 97.96 °W | Updated 6 minutes ago

Rain
Rain
36.7 °F
Feels Like 31 °F
N
6.8
Wind Variable Wind from SSE

Today
High -- | Low -- °F
--% Chance of Precip.
Yesterday
High -- | Low -- °F
Precip. -- in
8:01 AM 4:57 PM
New Moon, 0% visible
Pressure 29.50 in
Visibility 6.0 miles
Clouds Mostly Cloudy 900 ft
Overcast 3900 ft
Windchill 31 °F
Dew Point 36 °F
Humidity 99%
Rainfall 0.01 in
Snow Depth Not available.
UV 0 out of 12
Pollen .10 out of 12
Air Quality Not available.
Flu Activity Not available.
METAR KMHE 220653Z AUTO 16011KT 6SM -RA BR BKN009 OVC039 03/02 A2947 RMK AO2 SLP990 P0000 T00330022

More Conditions Fewer Conditions

Pressure 29.50 in
Visibility 6.0 miles
Clouds Mostly Cloudy 900 ft
Overcast 3900 ft
Windchill 31 °F
Dew Point 36 °F
Humidity 99%
Rainfall 0.01 in
Snow Depth Not available.
UV 0 out of 12
Pollen .10 out of 12
Air Quality Not available.
Flu Activity Not available.
METAR KMHE 220653Z AUTO 16011KT 6SM -RA BR BKN009 OVC039 03/02 A2947 RMK AO2 SLP990 P0000 T00330022

More Conditions Fewer Conditions

10-Day Weather Forecast

Almanac

Astronomy

Dec. 22, 2014 Rise Set
Actual Time
Civil Twilight
Nautical Twilight
Astronomical Twilight
Moon
Length of Visible Light
Length of Day
Tomorrow will be .
, % of the Moon is Illuminated

Today's Extremes

State Highs State Lows

Community

WunderPhotos

Upload Photos

1,779,560 photos uploaded!

WunderBlogs® & News

Nearby

Air Quality

  Air Quality AQ Index Pollutant
Not available.

Snow Depth

Station Depth Elevation

Earthquake Activity

City Distance Mag. Time & Date
Minimum magnitude displayed is 2.5.

Coastal Water Temperatures

Place Temperature

Nearby Weather Stations